Hauptseite
METAR-TAF:

METAR-TAF

Flughäfen :

City-Airport Mannheim

Mannheim, Deutschland

Breite: 49-28-21N, Länge: 008-30-56E, Höhe: 100 m

Beobachtung

Neuester Wetterbericht von vor 26 Minuten, um 08:50 UTC
Wind 4 kt aus Nord, variierte zwischen West/Nordwest und Ost
Temperatur 9°C
Luftfeuchtigkeit 53%
Luftdruck 1023 hPa
Sichtweite 10 km oder mehr
keine Wolken unter 1500 m und keine Kumulonimbus oder Gewitterwolken

METAR: EDFM 170850Z 01004KT 300V090 CAVOK 09/M00 Q1023

Zeit: 11:16 (09:16 UTC)

Prognose

Neuester Wetterbericht von vor 16 Stunden und 16 Minuten, um 17:00 UTC
Gültige Prognose vom 16 um 18 UTC bis 16 um 21 UTC
Wind 5 kt aus Nordost
Sichtweite 10 km oder mehr
Durchbrochene Bewölkung in der Höhe von 4000 ft

TAF: EDFM 161700Z 1618/1621 04005KT 9999 BKN040

Wetterbeobachtungen und Prognosen von mehr als 4000 Flughäfen (METAR und TAF Bericht).

Die verfügbaren Stationen werden durch gelbe und rote Markierungen auf der Karte dargestellt.

Führen Sie die Maus auf sie, um den Namen der Station zu sehen.

Darauf klicken, um die Beobachtung von Wetterbeobachtungen und Prognosen zu sehen.

Um die Karte zu ändern : klicken Sie auf den grünen Tasten mit einem schwarzen Kreuz Zum Vergrößern, auf den grünen Button mit einem Gedankenstrich zu verkleinern, oder auf die grünen Pfeile für benachbarte Karten.


METAR-TAF: